createdAt,value
2019-02-20T00:01:48.260Z,76.62
2019-02-20T00:03:55.368Z,76.71
2019-02-20T00:06:04.135Z,76.46
2019-02-20T00:08:11.364Z,76.30
2019-02-20T00:10:18.254Z,76.24
2019-02-20T00:12:25.534Z,76.40
2019-02-20T00:14:32.346Z,76.60
2019-02-20T00:16:39.673Z,76.71
2019-02-20T00:18:46.451Z,76.96
2019-02-20T00:20:53.407Z,77.22
2019-02-20T00:23:00.330Z,77.42
2019-02-20T00:25:08.529Z,77.51
2019-02-20T00:27:16.700Z,77.61
2019-02-20T00:29:23.738Z,77.64
2019-02-20T00:31:30.528Z,77.65
2019-02-20T00:33:37.612Z,77.73
2019-02-20T00:35:44.380Z,77.86
2019-02-20T00:37:51.881Z,77.93
2019-02-20T00:39:58.897Z,78.11
2019-02-20T00:42:05.920Z,78.32
2019-02-20T00:44:17.386Z,78.39
2019-02-20T00:46:29.384Z,78.54
2019-02-20T00:48:44.645Z,78.71
2019-02-20T00:51:12.108Z,78.76
2019-02-20T00:53:23.794Z,78.82
2019-02-20T00:55:31.112Z,79.00
2019-02-20T00:57:37.938Z,79.17
2019-02-20T00:59:44.826Z,79.28
2019-02-20T01:01:51.687Z,79.32
2019-02-20T01:04:00.053Z,79.32
2019-02-20T01:06:06.896Z,79.29
2019-02-20T01:08:14.273Z,79.16
2019-02-20T01:10:21.466Z,79.11
2019-02-20T01:12:28.162Z,79.07
2019-02-20T01:14:35.025Z,79.04
2019-02-20T01:16:41.849Z,79.09
2019-02-20T01:18:48.847Z,79.00
2019-02-20T01:20:55.717Z,78.88
2019-02-20T01:23:02.756Z,78.93
2019-02-20T01:25:09.797Z,78.72
2019-02-20T01:27:16.522Z,78.75
2019-02-20T01:29:25.193Z,78.50
2019-02-20T01:31:31.507Z,78.76
2019-02-20T01:33:37.662Z,78.62
2019-02-20T01:35:43.823Z,78.63
2019-02-20T01:37:50.289Z,78.65
2019-02-20T01:39:56.429Z,78.46
2019-02-20T01:42:02.701Z,78.47
2019-02-20T01:44:08.754Z,78.21
2019-02-20T01:46:16.164Z,78.24
2019-02-20T01:48:22.400Z,78.29
2019-02-20T01:50:28.446Z,78.50
2019-02-20T01:52:34.823Z,78.48
2019-02-20T01:54:42.134Z,78.61
2019-02-20T01:56:48.263Z,78.76
2019-02-20T01:58:54.302Z,79.20
2019-02-20T02:01:01.807Z,79.22
2019-02-20T02:03:08.052Z,79.35
2019-02-20T02:05:15.757Z,79.59
2019-02-20T02:07:22.118Z,79.66
2019-02-20T02:09:28.504Z,79.75
2019-02-20T02:11:34.940Z,79.78
2019-02-20T02:13:41.274Z,79.96
2019-02-20T02:15:47.670Z,79.85
2019-02-20T02:17:54.068Z,80.06
2019-02-20T02:20:00.319Z,79.81
2019-02-20T02:22:06.657Z,79.87
2019-02-20T02:24:12.919Z,79.69
2019-02-20T02:26:19.069Z,79.78
2019-02-20T02:28:25.339Z,79.78
2019-02-20T02:30:31.500Z,79.70
2019-02-20T02:32:37.557Z,79.87
2019-02-20T02:34:43.926Z,79.83
2019-02-20T02:36:50.084Z,79.80
2019-02-20T02:38:56.231Z,79.78
2019-02-20T02:41:02.392Z,79.89
2019-02-20T02:43:08.568Z,80.01
2019-02-20T02:45:14.822Z,79.95
2019-02-20T02:47:20.959Z,80.10
2019-02-20T02:49:30.130Z,80.02
2019-02-20T02:51:36.237Z,79.85
2019-02-20T02:53:42.395Z,79.87
2019-02-20T02:55:48.672Z,80.05
2019-02-20T02:57:56.172Z,80.11
2019-02-20T03:00:02.313Z,80.19
2019-02-20T03:02:08.587Z,80.29
2019-02-20T03:04:14.862Z,80.16
2019-02-20T03:06:21.298Z,80.25
2019-02-20T03:08:27.458Z,80.17
2019-02-20T03:10:33.497Z,80.23
2019-02-20T03:12:39.658Z,80.32
2019-02-20T03:14:45.816Z,80.40
2019-02-20T03:16:52.085Z,80.36
2019-02-20T03:18:58.253Z,80.16
2019-02-20T03:21:04.744Z,80.23
2019-02-20T03:23:11.085Z,80.17
2019-02-20T03:25:18.474Z,80.10
2019-02-20T03:27:24.726Z,80.08
2019-02-20T03:29:30.875Z,80.26
2019-02-20T03:31:37.139Z,80.24
2019-02-20T03:33:43.292Z,80.21
2019-02-20T03:35:49.550Z,80.21
2019-02-20T03:37:55.900Z,80.25
2019-02-20T03:40:02.294Z,80.23
2019-02-20T03:42:08.445Z,80.07
2019-02-20T03:44:14.615Z,80.20
2019-02-20T03:46:20.765Z,80.16
2019-02-20T03:48:28.029Z,80.12
2019-02-20T03:50:34.197Z,80.03
2019-02-20T03:52:40.250Z,79.68
2019-02-20T03:54:46.602Z,79.71
2019-02-20T03:56:52.755Z,79.56
2019-02-20T03:58:59.847Z,79.61
2019-02-20T04:01:06.004Z,79.69
2019-02-20T04:03:12.037Z,79.64
2019-02-20T04:05:18.513Z,79.72
2019-02-20T04:07:24.689Z,79.63
2019-02-20T04:09:31.249Z,79.79
2019-02-20T04:11:37.397Z,79.65
2019-02-20T04:13:43.473Z,79.53
2019-02-20T04:15:50.199Z,79.37
2019-02-20T04:17:56.245Z,78.81
2019-02-20T04:20:02.756Z,79.12
2019-02-20T04:22:09.340Z,79.17
2019-02-20T04:24:15.528Z,79.45
2019-02-20T04:26:21.537Z,79.69
2019-02-20T04:28:27.897Z,78.95
2019-02-20T04:30:34.475Z,78.95
2019-02-20T04:32:40.855Z,79.18
2019-02-20T04:34:47.105Z,79.52
2019-02-20T04:36:53.274Z,79.74
2019-02-20T04:38:59.789Z,80.08
2019-02-20T04:41:05.968Z,80.27
2019-02-20T04:43:12.129Z,80.69
2019-02-20T04:45:18.289Z,81.22
2019-02-20T04:47:25.081Z,81.75
2019-02-20T04:49:31.298Z,82.21
2019-02-20T04:51:37.923Z,82.45
2019-02-20T04:53:44.222Z,82.65
2019-02-20T04:55:50.522Z,82.77
2019-02-20T04:58:18.907Z,83.18
2019-02-20T05:00:25.174Z,83.58
2019-02-20T05:02:31.833Z,83.53
2019-02-20T05:04:38.528Z,83.56
2019-02-20T05:06:45.205Z,83.48
2019-02-20T05:08:51.286Z,83.55
2019-02-20T05:10:58.826Z,83.48
2019-02-20T05:13:05.676Z,83.38
2019-02-20T05:15:13.162Z,83.79
2019-02-20T05:17:19.206Z,83.73
2019-02-20T05:19:25.546Z,83.84
2019-02-20T05:21:43.749Z,84.05
2019-02-20T05:23:49.978Z,84.30
2019-02-20T05:25:56.142Z,84.37
2019-02-20T05:28:02.203Z,84.37
2019-02-20T05:30:09.978Z,84.37
2019-02-20T05:32:16.152Z,84.45
2019-02-20T05:34:22.719Z,84.58
2019-02-20T05:36:28.774Z,84.67
2019-02-20T05:38:34.918Z,84.74
2019-02-20T05:40:41.104Z,84.73
2019-02-20T05:42:48.386Z,84.82
2019-02-20T05:44:54.847Z,85.04
2019-02-20T05:47:01.210Z,84.87
2019-02-20T05:49:07.364Z,85.03
2019-02-20T05:51:13.724Z,84.91
2019-02-20T05:53:19.874Z,84.84
2019-02-20T05:55:26.250Z,85.02
2019-02-20T05:57:32.402Z,83.42
2019-02-20T05:59:38.565Z,83.25
2019-02-20T06:01:44.815Z,83.62
2019-02-20T06:03:51.860Z,83.26
2019-02-20T06:05:58.249Z,83.44
2019-02-20T06:08:04.424Z,83.22
2019-02-20T06:10:11.291Z,83.22
2019-02-20T06:12:17.341Z,83.11
2019-02-20T06:14:23.468Z,82.81
2019-02-20T06:16:29.765Z,83.18
2019-02-20T06:18:36.037Z,82.83
2019-02-20T06:20:42.175Z,82.87
2019-02-20T06:22:48.650Z,82.76
2019-02-20T06:24:54.697Z,82.80
2019-02-20T06:27:00.973Z,82.73
2019-02-20T06:29:07.211Z,82.79
2019-02-20T06:31:13.371Z,82.58
2019-02-20T06:33:19.541Z,82.53
2019-02-20T06:35:25.719Z,82.03
2019-02-20T06:37:31.855Z,82.18
2019-02-20T06:39:38.104Z,82.32
2019-02-20T06:41:44.282Z,81.74
2019-02-20T06:43:50.544Z,81.08
2019-02-20T06:45:56.685Z,81.18
2019-02-20T06:48:02.856Z,81.17
2019-02-20T06:50:10.360Z,81.20
2019-02-20T06:52:16.410Z,81.39
2019-02-20T06:54:22.654Z,81.51
2019-02-20T06:56:28.824Z,81.67
2019-02-20T06:58:34.979Z,81.78
2019-02-20T07:00:41.100Z,81.46
2019-02-20T07:02:47.286Z,81.58
2019-02-20T07:05:35.020Z,81.67
2019-02-20T07:07:45.528Z,81.94
2019-02-20T07:09:58.704Z,82.17
2019-02-20T07:12:24.096Z,81.80
2019-02-20T07:14:52.664Z,81.10
2019-02-20T07:17:39.825Z,80.70
2019-02-20T07:20:02.357Z,80.23
2019-02-20T07:22:34.326Z,80.11
2019-02-20T07:24:47.441Z,79.97
2019-02-20T07:27:29.446Z,80.11
2019-02-20T07:30:02.340Z,80.03
2019-02-20T07:32:09.411Z,80.25
2019-02-20T07:34:15.863Z,80.65
2019-02-20T07:36:21.962Z,81.17
2019-02-20T07:38:28.114Z,81.28
2019-02-20T07:40:34.254Z,80.93
2019-02-20T07:42:40.364Z,80.41
2019-02-20T07:46:59.358Z,79.52
2019-02-20T07:49:05.522Z,79.16
2019-02-20T07:51:11.672Z,79.26
2019-02-20T07:53:17.799Z,78.25
2019-02-20T07:55:24.831Z,77.39
2019-02-20T07:57:31.139Z,77.41
2019-02-20T07:59:37.434Z,77.15
2019-02-20T08:01:43.629Z,76.69
2019-02-20T08:03:49.635Z,76.85
2019-02-20T08:05:55.717Z,76.96
2019-02-20T08:08:02.285Z,76.47
2019-02-20T08:10:12.004Z,76.72
2019-02-20T08:12:18.195Z,75.74
2019-02-20T08:14:24.229Z,75.52
2019-02-20T08:16:30.503Z,75.36
2019-02-20T08:18:37.990Z,74.29
2019-02-20T08:20:44.229Z,74.14
2019-02-20T08:22:50.296Z,73.80
2019-02-20T08:24:56.475Z,73.95
2019-02-20T08:27:02.737Z,73.72
2019-02-20T08:29:09.903Z,73.57
2019-02-20T08:31:16.040Z,73.22
2019-02-20T08:33:22.226Z,73.35
2019-02-20T08:35:28.473Z,73.41
2019-02-20T08:37:34.624Z,72.62
2019-02-20T08:39:40.924Z,72.24
2019-02-20T08:41:47.058Z,72.82
2019-02-20T08:43:54.333Z,72.26
2019-02-20T08:46:00.459Z,72.15
2019-02-20T08:48:09.821Z,71.85
2019-02-20T08:50:16.930Z,72.15
2019-02-20T08:52:23.273Z,71.96
2019-02-20T08:54:29.521Z,71.09
2019-02-20T08:56:35.591Z,71.00
2019-02-20T08:58:41.841Z,71.10
2019-02-20T09:00:48.220Z,70.88
2019-02-20T09:02:54.475Z,71.01
2019-02-20T09:05:00.727Z,70.94
2019-02-20T09:07:06.882Z,71.82
2019-02-20T09:09:13.087Z,71.77
2019-02-20T09:11:19.402Z,72.00
2019-02-20T09:13:25.563Z,72.41
2019-02-20T09:15:31.711Z,72.63
2019-02-20T09:17:39.307Z,72.23
2019-02-20T09:19:47.509Z,72.69
2019-02-20T09:21:53.896Z,72.33
2019-02-20T09:24:00.043Z,72.55
2019-02-20T09:26:06.180Z,72.61
2019-02-20T09:28:13.995Z,72.42
2019-02-20T09:30:28.256Z,72.27
2019-02-20T09:32:27.827Z,71.53
2019-02-20T09:34:34.528Z,72.33
2019-02-20T09:36:40.515Z,73.25
2019-02-20T09:38:46.622Z,72.66
2019-02-20T09:53:04.143Z,71.77
2019-02-20T09:55:14.382Z,72.06
2019-02-20T09:57:20.650Z,71.39
2019-02-20T09:59:26.806Z,70.59
2019-02-20T10:01:44.737Z,71.10
2019-02-20T10:03:51.813Z,71.19
2019-02-20T10:05:58.063Z,73.60
2019-02-20T10:08:05.372Z,75.14
2019-02-20T10:10:13.061Z,75.83
2019-02-20T10:12:19.307Z,77.42
2019-02-20T10:14:25.576Z,77.26
2019-02-20T10:16:31.741Z,77.30
2019-02-20T10:18:38.074Z,76.51
2019-02-20T10:20:44.175Z,76.48
2019-02-20T10:22:50.399Z,75.66
2019-02-20T10:24:56.584Z,75.45
2019-02-20T10:27:02.726Z,75.17
2019-02-20T10:29:08.776Z,73.38
2019-02-20T10:31:14.846Z,73.46
2019-02-20T10:33:20.945Z,74.05
2019-02-20T10:35:27.015Z,73.86
2019-02-20T10:37:33.196Z,73.68
2019-02-20T10:39:39.378Z,73.66
2019-02-20T10:41:45.615Z,74.36
2019-02-20T10:43:51.925Z,74.87
2019-02-20T10:45:58.152Z,74.90
2019-02-20T10:48:04.428Z,74.16
2019-02-20T10:50:13.313Z,73.79
2019-02-20T10:52:20.398Z,73.85
2019-02-20T10:54:27.095Z,73.71
2019-02-20T10:56:33.541Z,74.29
2019-02-20T10:58:39.719Z,73.42
2019-02-20T11:00:46.157Z,73.79
2019-02-20T11:02:52.415Z,72.51
2019-02-20T11:04:58.565Z,71.41
2019-02-20T11:07:04.747Z,71.44
2019-02-20T11:09:12.023Z,71.42
2019-02-20T11:11:18.178Z,70.75
2019-02-20T11:13:24.297Z,68.74
2019-02-20T11:15:30.844Z,68.27
2019-02-20T11:17:37.387Z,67.81
2019-02-20T11:19:43.940Z,65.97
2019-02-20T11:21:50.100Z,65.57
2019-02-20T11:23:57.801Z,65.78
2019-02-20T11:26:04.872Z,64.89
2019-02-20T11:28:11.243Z,64.55
2019-02-20T11:30:22.092Z,65.44
2019-02-20T11:32:28.161Z,65.37
2019-02-20T11:34:34.338Z,65.39
2019-02-20T11:36:40.603Z,66.45
2019-02-20T11:38:47.039Z,62.51
2019-02-20T11:40:53.215Z,62.53
2019-02-20T11:42:59.316Z,62.67
2019-02-20T11:45:11.552Z,62.87
2019-02-20T11:47:17.720Z,62.67
2019-02-20T11:49:23.881Z,62.07
2019-02-20T11:51:30.148Z,62.57
2019-02-20T11:53:37.416Z,63.28
2019-02-20T11:55:43.972Z,63.22
2019-02-20T11:57:50.249Z,63.19
2019-02-20T11:59:56.512Z,63.43
2019-02-20T12:02:02.611Z,63.54
2019-02-20T12:04:09.700Z,62.94
2019-02-20T12:06:15.901Z,63.23
2019-02-20T12:08:22.072Z,63.13
2019-02-20T12:10:28.304Z,63.05
2019-02-20T12:12:34.512Z,63.32
2019-02-20T12:14:40.742Z,63.83
2019-02-20T12:16:46.735Z,63.99
2019-02-20T12:18:52.843Z,64.37
2019-02-20T12:20:59.232Z,64.36
2019-02-20T12:23:05.474Z,64.48
2019-02-20T12:25:12.354Z,64.35
2019-02-20T12:27:18.503Z,64.57
2019-02-20T12:29:24.676Z,64.00
2019-02-20T12:31:30.936Z,64.87
2019-02-20T12:33:37.127Z,64.96
2019-02-20T12:35:43.368Z,65.21
2019-02-20T12:37:49.435Z,65.42
2019-02-20T12:39:55.563Z,64.94
2019-02-20T12:42:01.714Z,65.01
2019-02-20T12:44:07.879Z,65.15
2019-02-20T12:46:14.042Z,65.14
2019-02-20T12:48:20.310Z,64.96
2019-02-20T12:50:26.561Z,64.13
2019-02-20T12:52:32.723Z,63.97
2019-02-20T12:54:38.996Z,64.04
2019-02-20T12:56:45.249Z,63.75
2019-02-20T12:58:53.859Z,63.73
2019-02-20T13:01:00.217Z,63.25
2019-02-20T13:03:07.293Z,63.05
2019-02-20T13:05:13.458Z,62.45
2019-02-20T13:07:21.449Z,62.05
2019-02-20T13:09:27.645Z,61.93
2019-02-20T13:11:33.874Z,61.98
2019-02-20T13:13:40.155Z,61.79
2019-02-20T13:15:46.405Z,61.37
2019-02-20T13:17:52.664Z,61.65
2019-02-20T13:19:58.965Z,61.54
2019-02-20T13:22:05.154Z,61.14
2019-02-20T13:24:11.345Z,61.49
2019-02-20T13:26:17.607Z,61.40
2019-02-20T13:28:23.827Z,61.25
2019-02-20T13:30:30.005Z,61.39
2019-02-20T13:32:36.252Z,61.34
2019-02-20T13:34:42.426Z,61.71
2019-02-20T13:36:48.603Z,61.23
2019-02-20T13:38:54.857Z,61.32
2019-02-20T13:41:01.108Z,62.08
2019-02-20T13:43:07.689Z,62.42
2019-02-20T13:45:13.872Z,63.15
2019-02-20T13:47:20.214Z,63.37
2019-02-20T13:49:27.483Z,63.49
2019-02-20T13:51:34.662Z,64.07
2019-02-20T13:53:46.355Z,64.59
2019-02-20T13:55:48.832Z,65.62
2019-02-20T13:57:54.981Z,66.73
2019-02-20T14:00:01.144Z,67.33
2019-02-20T14:02:08.930Z,67.32
2019-02-20T14:04:16.574Z,67.47
2019-02-20T14:06:23.423Z,66.14
2019-02-20T14:08:30.050Z,66.00
2019-02-20T14:10:36.331Z,66.06
2019-02-20T14:12:42.591Z,66.23
2019-02-20T14:14:48.875Z,66.02
2019-02-20T14:16:55.121Z,66.42
2019-02-20T14:19:01.389Z,66.19
2019-02-20T14:21:09.346Z,66.11
2019-02-20T14:23:15.645Z,66.69
2019-02-20T14:25:22.209Z,66.42
2019-02-20T14:27:28.485Z,66.63
2019-02-20T14:29:34.803Z,66.71
2019-02-20T14:31:42.820Z,66.52
2019-02-20T14:33:49.315Z,67.00
2019-02-20T14:35:55.765Z,67.03
2019-02-20T14:38:02.095Z,67.11
2019-02-20T14:40:11.428Z,67.13
2019-02-20T14:42:19.046Z,66.78
2019-02-20T14:44:25.304Z,66.76
2019-02-20T14:46:33.291Z,67.14
2019-02-20T14:48:39.565Z,67.04
2019-02-20T14:50:45.751Z,67.02
2019-02-20T14:52:52.009Z,67.13
2019-02-20T14:54:58.213Z,67.08
2019-02-20T14:57:05.802Z,66.83
2019-02-20T14:59:12.724Z,67.10
2019-02-20T15:01:19.070Z,67.06
2019-02-20T15:03:25.125Z,66.81
2019-02-20T15:05:31.679Z,66.89
2019-02-20T15:07:37.964Z,67.14
2019-02-20T15:09:44.223Z,67.23
2019-02-20T15:11:50.896Z,66.76
2019-02-20T15:13:57.142Z,66.66
2019-02-20T15:16:03.410Z,66.70
2019-02-20T15:18:09.683Z,66.93
2019-02-20T15:20:16.140Z,66.53
2019-02-20T15:22:22.609Z,66.92
2019-02-20T15:24:29.558Z,66.62
2019-02-20T15:26:37.142Z,66.84
2019-02-20T15:28:43.621Z,66.85
2019-02-20T15:30:49.914Z,67.08
2019-02-20T15:32:56.261Z,67.08
2019-02-20T15:35:02.514Z,67.00
2019-02-20T15:37:09.820Z,66.97
2019-02-20T15:39:16.573Z,67.19
2019-02-20T15:41:23.121Z,66.97
2019-02-20T15:43:29.594Z,67.00
2019-02-20T15:45:35.913Z,67.05
2019-02-20T15:47:44.061Z,66.79
2019-02-20T15:49:51.155Z,66.84
2019-02-20T15:51:57.715Z,67.15
2019-02-20T15:54:03.969Z,67.07
2019-02-20T15:56:11.878Z,66.62
2019-02-20T15:58:18.264Z,66.59
2019-02-20T16:00:26.351Z,66.67
2019-02-20T16:02:33.234Z,66.72
2019-02-20T16:04:41.933Z,66.66
2019-02-20T16:06:48.278Z,66.71
2019-02-20T16:08:54.795Z,66.97
2019-02-20T16:11:02.886Z,66.66
2019-02-20T16:13:09.132Z,66.77
2019-02-20T16:15:16.223Z,66.68
2019-02-20T16:17:22.679Z,66.90
2019-02-20T16:19:30.554Z,66.96
2019-02-20T16:21:37.024Z,66.99
2019-02-20T16:23:44.846Z,66.97
2019-02-20T16:25:51.081Z,66.61
2019-02-20T16:27:57.479Z,66.55
2019-02-20T16:30:06.365Z,66.81
2019-02-20T16:32:14.575Z,66.68
2019-02-20T16:34:22.725Z,65.61
2019-02-20T16:36:29.152Z,65.89
2019-02-20T16:38:36.792Z,65.78
2019-02-20T16:40:44.175Z,66.01
2019-02-20T16:42:52.925Z,66.49
2019-02-20T16:44:59.846Z,66.74
2019-02-20T16:47:06.634Z,66.97
2019-02-20T16:49:14.215Z,67.04
2019-02-20T16:51:20.842Z,67.02
2019-02-20T16:53:27.304Z,67.27
2019-02-20T16:55:34.497Z,67.37
2019-02-20T16:57:40.951Z,67.73
2019-02-20T16:59:47.427Z,67.46
2019-02-20T17:01:53.811Z,67.25
2019-02-20T17:04:00.207Z,67.15
2019-02-20T17:06:06.592Z,67.11
2019-02-20T17:08:15.038Z,67.31
2019-02-20T17:10:21.620Z,67.31
2019-02-20T17:12:28.277Z,67.26
2019-02-20T17:14:36.538Z,66.91
2019-02-20T17:16:42.790Z,66.57
2019-02-20T17:18:49.316Z,66.60
2019-02-20T17:20:56.192Z,66.58
2019-02-20T17:23:02.578Z,66.66
2019-02-20T17:25:12.547Z,66.50
2019-02-20T17:27:19.157Z,66.74
2019-02-20T17:29:25.611Z,66.51
2019-02-20T17:31:31.916Z,66.72
2019-02-20T17:33:39.675Z,66.60
2019-02-20T17:35:47.015Z,66.74
2019-02-20T17:37:53.497Z,67.11
2019-02-20T17:40:00.270Z,67.20
2019-02-20T17:42:07.195Z,67.54
2019-02-20T17:44:14.976Z,67.80
2019-02-20T17:46:26.762Z,67.82
2019-02-20T17:48:35.010Z,68.01
2019-02-20T17:50:41.815Z,68.21
2019-02-20T17:52:50.058Z,68.52
2019-02-20T17:54:56.615Z,68.65
2019-02-20T17:57:03.314Z,68.71
2019-02-20T17:59:10.416Z,68.74
2019-02-20T18:01:17.017Z,68.66
2019-02-20T18:03:23.514Z,68.78
2019-02-20T18:05:30.137Z,68.29
2019-02-20T18:07:37.005Z,68.39
2019-02-20T18:09:43.510Z,68.36
2019-02-20T18:11:50.891Z,68.50
2019-02-20T18:13:58.048Z,68.18
2019-02-20T18:16:06.548Z,67.89
2019-02-20T18:18:13.183Z,67.54
2019-02-20T18:20:21.263Z,67.37
2019-02-20T18:22:29.486Z,67.07
2019-02-20T18:24:37.315Z,66.54
2019-02-20T18:26:43.855Z,66.81
2019-02-20T18:28:50.271Z,66.65
2019-02-20T18:30:56.927Z,66.56
2019-02-20T18:33:03.832Z,66.70
2019-02-20T18:35:14.447Z,66.82
2019-02-20T18:37:22.426Z,67.00
2019-02-20T18:39:29.109Z,67.22
2019-02-20T18:41:35.806Z,67.33
2019-02-20T18:43:42.481Z,67.38
2019-02-20T18:45:49.148Z,67.11
2019-02-20T18:47:55.817Z,66.69
2019-02-20T18:50:03.418Z,66.60
2019-02-20T18:52:10.280Z,66.72
2019-02-20T18:54:17.458Z,66.68
2019-02-20T18:56:25.097Z,66.62
2019-02-20T18:58:34.004Z,66.90
2019-02-20T19:00:41.133Z,67.03
2019-02-20T19:02:51.899Z,67.13
2019-02-20T19:04:58.877Z,66.99
2019-02-20T19:07:14.698Z,67.06
2019-02-20T19:09:24.450Z,67.25
2019-02-20T19:11:37.984Z,67.37
2019-02-20T19:14:12.964Z,67.50
2019-02-20T19:16:44.961Z,67.92
2019-02-20T19:19:10.344Z,68.34
2019-02-20T19:21:23.992Z,68.64
2019-02-20T19:24:00.544Z,68.90
2019-02-20T19:26:14.299Z,69.13
2019-02-20T19:28:43.850Z,69.55
2019-02-20T19:30:51.620Z,69.67
2019-02-20T19:33:14.343Z,70.03
2019-02-20T19:35:51.959Z,70.30
2019-02-20T19:38:36.282Z,70.90
2019-02-20T19:41:15.885Z,71.24
2019-02-20T19:43:44.813Z,71.80
2019-02-20T19:46:23.835Z,72.20
2019-02-20T19:48:42.096Z,72.61
2019-02-20T19:50:56.010Z,73.27
2019-02-20T19:53:16.913Z,73.39
2019-02-20T19:55:44.052Z,73.55
2019-02-20T19:58:04.036Z,73.79
2019-02-20T20:00:27.134Z,73.72
2019-02-20T20:02:58.811Z,73.42
2019-02-20T20:05:44.259Z,73.24
2019-02-20T20:08:19.783Z,72.93
2019-02-20T20:10:56.097Z,72.69
2019-02-20T20:13:19.514Z,72.73
2019-02-20T20:15:36.230Z,72.70
2019-02-20T20:18:01.994Z,72.91
2019-02-20T20:20:15.784Z,73.12
2019-02-20T20:22:46.221Z,73.43
2019-02-20T20:25:05.585Z,73.73
2019-02-20T20:27:28.579Z,74.13
2019-02-20T20:29:47.807Z,74.45
2019-02-20T20:32:52.513Z,74.86
2019-02-20T20:35:27.230Z,75.20
2019-02-20T20:37:49.209Z,75.65
2019-02-20T20:40:36.805Z,76.13
2019-02-20T20:42:56.376Z,76.50
2019-02-20T20:45:24.895Z,76.77
2019-02-20T20:47:47.905Z,76.92
2019-02-20T20:50:11.165Z,77.04
2019-02-20T20:52:42.847Z,77.13
2019-02-20T20:55:09.545Z,77.43
2019-02-20T20:57:56.242Z,77.70
2019-02-20T21:00:25.455Z,77.91
2019-02-20T21:02:40.695Z,77.97
2019-02-20T21:05:10.886Z,78.01
2019-02-20T21:07:39.326Z,78.10
2019-02-20T21:10:00.614Z,78.15
2019-02-20T21:12:23.280Z,78.25
2019-02-20T21:14:43.265Z,78.49
2019-02-20T21:17:27.535Z,78.55
2019-02-20T21:20:08.192Z,78.60
2019-02-20T21:22:36.695Z,78.72
2019-02-20T21:25:22.378Z,78.97
2019-02-20T21:28:07.719Z,79.25
2019-02-20T21:30:18.636Z,79.72
2019-02-20T21:32:52.235Z,80.21
2019-02-20T21:35:12.359Z,80.33
2019-02-20T21:37:42.696Z,80.61
2019-02-20T21:40:19.286Z,80.89
2019-02-20T21:42:44.873Z,81.00
2019-02-20T21:45:31.835Z,81.15
2019-02-20T21:47:42.503Z,81.37
2019-02-20T21:50:31.001Z,81.66
2019-02-20T21:52:47.166Z,81.83
2019-02-20T21:55:35.337Z,81.97
2019-02-20T21:57:55.122Z,82.04
2019-02-20T22:00:22.786Z,82.16
2019-02-20T22:03:09.822Z,82.33
2019-02-20T22:05:41.036Z,82.43
2019-02-20T22:08:10.955Z,82.57
2019-02-20T22:10:45.574Z,82.64
2019-02-20T22:13:27.935Z,82.79
2019-02-20T22:15:41.328Z,83.00
2019-02-20T22:18:09.584Z,83.14
2019-02-20T22:20:42.885Z,83.33
2019-02-20T22:23:02.045Z,83.56
2019-02-20T22:25:27.665Z,83.85
2019-02-20T22:27:53.592Z,84.02
2019-02-20T22:30:15.924Z,84.27
2019-02-20T22:32:32.009Z,84.41
2019-02-20T22:34:51.097Z,84.61
2019-02-20T22:37:04.610Z,84.70
2019-02-20T22:39:18.134Z,84.79
2019-02-20T22:41:40.371Z,84.91
2019-02-20T22:44:19.399Z,84.95
2019-02-20T22:46:33.832Z,84.96
2019-02-20T22:48:50.659Z,84.74
2019-02-20T22:51:16.181Z,84.68
2019-02-20T22:54:04.694Z,84.56
2019-02-20T22:56:57.872Z,84.48
2019-02-20T22:59:41.611Z,84.21
2019-02-20T23:02:23.511Z,83.98
2019-02-20T23:04:49.130Z,83.75
2019-02-20T23:07:17.910Z,83.47
2019-02-20T23:10:03.711Z,83.43
2019-02-20T23:12:15.891Z,83.23
2019-02-20T23:14:58.212Z,83.10
2019-02-20T23:17:04.430Z,83.01
2019-02-20T23:19:10.624Z,83.02
2019-02-20T23:21:16.882Z,83.07
2019-02-20T23:23:23.149Z,83.10
2019-02-20T23:25:29.605Z,83.12
2019-02-20T23:27:35.863Z,82.94
2019-02-20T23:29:42.129Z,83.21
2019-02-20T23:31:48.285Z,82.90
2019-02-20T23:33:54.426Z,83.13
2019-02-20T23:36:00.703Z,83.21
2019-02-20T23:38:06.847Z,83.56
2019-02-20T23:40:13.525Z,84.06
2019-02-20T23:42:19.766Z,84.11
2019-02-20T23:44:25.931Z,84.34
2019-02-20T23:46:32.207Z,84.51
2019-02-20T23:48:38.366Z,84.52
2019-02-20T23:50:45.634Z,84.64
2019-02-20T23:52:51.903Z,84.89
2019-02-20T23:54:58.162Z,85.31
2019-02-20T23:57:04.606Z,85.48
2019-02-20T23:59:10.783Z,85.60
